• Join FlightAware (Why Join?)
  • Login
  • US Flag 
04:31PM EST


 

Airport Tracker/Info


-or-


 

Live Flight TrackerFlight Track Log ✈ N789EX ✈ 14-Apr-2014 ✈ KBFI - KBFI

Flight Track Log - Related Links

Times and Time Zones

All times are in EDT time to prevent confusion due to time zone crossing. See the N789EX flight status page for this flight to view local times or setup timezone preferences in your user account.

Time Position Orientation Groundspeed Altitude Reporting Facility
EDT Latitude Longitude Course Direction KTS MPH feet Rate Location/Type
01:25PM 47.4981 -122.2730 144° Southeast 186 214 1,500  Level FlightAware ADS-B
01:25PM 47.4899 -122.2640 146° Southeast 198 228 1,800 1,560 Climbing FlightAware ADS-B
01:25PM 47.4775 -122.2520 146° Southeast 220 253 2,200 1,380 Climbing FlightAware ADS-B
01:26PM 47.4637 -122.2390 146° Southeast 242 278 2,500 1,920 Climbing FlightAware ADS-B
01:26PM 47.4491 -122.2240 146° Southeast 251 289 3,200 3,240 Climbing FlightAware ADS-B
01:26PM 47.4348 -122.2100 146° Southeast 245 282 4,200 3,300 Climbing FlightAware ADS-B
01:26PM 47.4217 -122.1970 146° Southeast 252 290 4,800 2,640 Climbing FlightAware ADS-B
01:26PM 47.4175 -122.1930 149° Southeast 256 295 5,000 2,220 Climbing FlightAware ADS-B
01:26PM 47.4134 -122.1900 156° South 257 296 5,100 1,680 Climbing FlightAware ADS-B
01:26PM 47.4100 -122.1880 161° South 258 297 5,200 3,000 Climbing FlightAware ADS-B
01:27PM 47.4059 -122.1870 167° South 257 296 5,400 3,420 Climbing FlightAware ADS-B
01:27PM 47.4019 -122.1850 169° South 257 296 5,600 3,000 Climbing FlightAware ADS-B
01:27PM 47.3939 -122.1840 173° South 256 295 5,900 2,280 Climbing FlightAware ADS-B
01:27PM 47.3768 -122.1810 175° South 250 288 6,400 1,860 Climbing FlightAware ADS-B
01:27PM 47.3719 -122.1810 176° South 250 288 6,500 1,500 Climbing FlightAware ADS-B
01:27PM 47.3678 -122.1800 178° South 249 287 6,600 1,500 Climbing FlightAware ADS-B
01:27PM 47.3634 -122.1810 184° South 250 288 6,700 720 Climbing FlightAware ADS-B
01:27PM 47.3589 -122.1820 192° South 249 287 6,700 720 Level FlightAware ADS-B
01:27PM 47.3541 -122.1840 200° South 248 285 6,800 720 Climbing FlightAware ADS-B
01:27PM 47.3508 -122.1870 209° Southwest 248 285 6,800  Level FlightAware ADS-B
01:27PM 47.3473 -122.1910 219° Southwest 250 288 6,800  Level FlightAware ADS-B
01:27PM 47.3446 -122.1940 226° Southwest 250 288 6,800  Level FlightAware ADS-B
01:28PM 47.3421 -122.1990 233° Southwest 252 290 6,800  Level FlightAware ADS-B
01:28PM 47.3398 -122.2050 242° Southwest 255 293 6,800  Level FlightAware ADS-B
01:28PM 47.3382 -122.2110 252° West 256 295 6,800  Level FlightAware ADS-B
01:28PM 47.3373 -122.2170 258° West 259 298 6,800  Level FlightAware ADS-B
01:28PM 47.3369 -122.2230 263° West 260 299 6,800  Level FlightAware ADS-B
01:28PM 47.3367 -122.2280 267° West 260 299 6,800 600 Level FlightAware ADS-B
01:28PM 47.3368 -122.2560 271° West 263 303 7,000 1,680 Climbing FlightAware ADS-B
01:28PM 47.3368 -122.2770 270° West 262 302 7,600 2,640 Climbing FlightAware ADS-B
01:29PM 47.3368 -122.3040 270° West 261 300 8,200 1,980 Climbing FlightAware ADS-B
01:29PM 47.3368 -122.3310 270° West 263 303 8,600 1,200 Climbing FlightAware ADS-B
01:29PM 47.3366 -122.3580 269° West 264 304 8,800 420 Climbing FlightAware ADS-B
01:29PM 47.3365 -122.3770 270° West 264 304 8,800  Level FlightAware ADS-B
01:29PM 47.3364 -122.4050 270° West 262 302 8,800  Level FlightAware ADS-B
01:30PM 47.3365 -122.4330 270° West 262 302 8,800  Level FlightAware ADS-B
01:30PM 47.3365 -122.4600 270° West 260 299 8,800  Level FlightAware ADS-B
01:30PM 47.3366 -122.4870 270° West 259 298 8,800  Level FlightAware ADS-B
01:31PM 47.3367 -122.5160 270° West 260 299 8,800  Level FlightAware ADS-B
01:31PM 47.3369 -122.5440 270° West 259 298 8,800  Level FlightAware ADS-B
01:31PM 47.3370 -122.5710 270° West 259 298 8,800  Level FlightAware ADS-B
01:31PM 47.3372 -122.5990 270° West 258 297 8,800  Level FlightAware ADS-B
01:32PM 47.3373 -122.6250 270° West 258 297 8,800  Level FlightAware ADS-B
01:32PM 47.3374 -122.6520 270° West 259 298 8,800  Level FlightAware ADS-B
01:32PM 47.3375 -122.6780 270° West 260 299 8,800  Level FlightAware ADS-B
01:32PM 47.3377 -122.7060 270° West 262 302 8,800  Level FlightAware ADS-B
01:33PM 47.3378 -122.7340 270° West 261 300 8,800  Level FlightAware ADS-B
01:33PM 47.3378 -122.7450 269° West 261 300 8,800  Level FlightAware ADS-B
01:33PM 47.3371 -122.7570 263° West 260 299 8,800  Level FlightAware ADS-B
01:33PM 47.3346 -122.7730 255° West 258 297 8,800  Level FlightAware ADS-B
01:33PM 47.3330 -122.7810 251° West 257 296 8,800  Level FlightAware ADS-B
01:33PM 47.3313 -122.7870 248° West 256 295 8,800  Level FlightAware ADS-B
01:33PM 47.3246 -122.8110 248° West 253 291 8,800  Level FlightAware ADS-B
01:34PM 47.3181 -122.8350 248° West 253 291 8,800  Level FlightAware ADS-B
01:34PM 47.3114 -122.8590 248° West 252 290 8,800  Level FlightAware ADS-B
01:34PM 47.3050 -122.8830 248° West 255 293 8,800  Level FlightAware ADS-B
01:34PM 47.2982 -122.9070 248° West 256 295 8,800  Level FlightAware ADS-B
01:35PM 47.2913 -122.9320 248° West 257 296 8,800  Level FlightAware ADS-B
01:35PM 47.2848 -122.9560 248° West 257 296 8,800  Level FlightAware ADS-B
01:35PM 47.2790 -122.9770 248° West 257 296 8,800  Level FlightAware ADS-B
01:35PM 47.2722 -123.0020 248° West 256 295 8,800  Level FlightAware ADS-B
01:36PM 47.2653 -123.0270 248° West 257 296 8,800  Level FlightAware ADS-B
01:36PM 47.2586 -123.0510 248° West 257 296 8,800  Level FlightAware ADS-B
01:36PM 47.2517 -123.0760 248° West 257 296 8,800  Level FlightAware ADS-B
01:36PM 47.2459 -123.0970 248° West 258 297 8,800  Level FlightAware ADS-B
01:37PM 47.2390 -123.1210 248° West 257 296 8,800  Level FlightAware ADS-B
01:37PM 47.2322 -123.1460 248° West 257 296 8,800  Level FlightAware ADS-B
01:37PM 47.2252 -123.1710 248° West 257 296 8,800  Level FlightAware ADS-B
01:37PM 47.2198 -123.1900 248° West 257 296 8,800  Level FlightAware ADS-B
01:38PM 47.2130 -123.2150 248° West 258 297 8,800  Level FlightAware ADS-B
01:38PM 47.2061 -123.2400 248° West 259 298 8,800  Level FlightAware ADS-B
01:38PM 47.1991 -123.2640 248° West 260 299 8,800  Level FlightAware ADS-B
01:38PM 47.1923 -123.2890 247° West 259 298 8,800  Level FlightAware ADS-B
01:39PM 47.1853 -123.3140 248° West 257 296 8,800  Level FlightAware ADS-B
01:39PM 47.1784 -123.3380 248° West 257 296 8,800  Level FlightAware ADS-B
01:39PM 47.1715 -123.3630 248° West 256 295 8,800  Level FlightAware ADS-B
01:39PM 47.1642 -123.3890 248° West 255 293 8,800  Level FlightAware ADS-B
01:40PM 47.1573 -123.4130 248° West 255 293 8,800  Level FlightAware ADS-B
01:40PM 47.1506 -123.4380 247° West 256 295 8,800 600 Level FlightAware ADS-B
01:40PM 47.1435 -123.4620 248° West 258 297 9,100 1,800 Climbing FlightAware ADS-B
01:40PM 47.1365 -123.4880 247° West 262 302 9,700 1,980 Climbing FlightAware ADS-B
01:41PM 47.1220 -123.5390 248° West 287 330 10,600 1,440 Climbing FlightAware ADS-B
01:41PM 47.1054 -123.5970 248° West 322 371 11,200 1,620 Climbing FlightAware ADS-B
01:42PM 47.0850 -123.6690 247° West 341 392 12,400 2,400 Climbing FlightAware ADS-B
01:42PM 47.0666 -123.7330 247° West 346 398 13,800 2,580 Climbing FlightAware ADS-B
01:43PM 47.0601 -123.7560 248° West 348 400 14,200 2,580 Climbing FlightAware ADS-B (CYVR)
01:43PM 47.0478 -123.7990 247° West 352 405 15,100 2,520 Climbing FlightAware ADS-B
01:43PM 47.0319 -123.8549 247° West 359 413 16,200 2,280 Climbing FlightAware ADS-B (CYVR)
01:43PM 47.0287 -123.8660 247° West 359 413 16,300 2,160 Climbing FlightAware ADS-B
01:44PM 47.0089 -123.9350 247° West 365 420 17,400 2,160 Climbing FlightAware ADS-B
01:44PM 46.9948 -123.9840 247° West 370 426 18,200 1,800 Climbing FlightAware ADS-B
01:45PM 46.9843 -124.0192 247° West 371 427 18,900 2,160 Climbing FlightAware ADS-B
01:45PM 46.9741 -124.0550 247° West 375 432 19,300 3,360 Climbing FlightAware ADS-B
01:45PM 46.9645 -124.0850 243° Southwest 376 433 19,800 2,100 Climbing FlightAware ADS-B
01:45PM 46.9579 -124.1000 234° Southwest 379 436 20,000 2,160 Climbing FlightAware ADS-B
01:45PM 46.9538 -124.1070 229° Southwest 380 437 20,200 1,980 Climbing FlightAware ADS-B
01:45PM 46.9478 -124.1160 221° Southwest 382 440 20,300 1,500 Climbing FlightAware ADS-B
01:45PM 46.9436 -124.1200 216° Southwest 383 441 20,400 1,680 Climbing FlightAware ADS-B
01:45PM 46.9369 -124.1260 210° Southwest 386 444 20,500  Climbing FlightAware ADS-B
01:45PM 46.9497 -124.1132 223° Southwest 382 440 20,400 1,980 Descending FlightAware ADS-B
01:45PM 46.9275 -124.1330 203° Southwest 391 450 20,700 1,800 Climbing FlightAware ADS-B
01:46PM 46.9134 -124.1399 197° South 395 455 21,000 1,980 Climbing FlightAware ADS-B
01:46PM 46.8746 -124.1570 196° South 399 459 21,700 2,100 Climbing FlightAware ADS-B
01:46PM 46.8362 -124.1730 197° South 403 464 22,400 1,800 Climbing FlightAware ADS-B
01:46PM 46.8204 -124.1800 196° South 404 465 22,600 1,800 Climbing FlightAware ADS-B
01:47PM 46.7660 -124.2050 199° South 408 470 23,500 1,680 Climbing FlightAware ADS-B
01:47PM 46.7642 -124.2062 199° South 409 471 23,600 2,040 Climbing FlightAware ADS-B
01:48PM 46.7010 -124.2396 201° Southwest 406 467 25,000 2,160 Climbing FlightAware ADS-B
01:48PM 46.6870 -124.2470 201° Southwest 407 468 25,100 1,260 Climbing FlightAware ADS-B
01:48PM 46.6319 -124.2770 200° South 415 478 25,700 1,020 Climbing FlightAware ADS-B
01:48PM 46.6185 -124.2845 200° South 416 479 25,800 960 Climbing FlightAware ADS-B
01:49PM 46.5756 -124.3070 200° South 427 491 26,200 900 Climbing FlightAware ADS-B
01:49PM 46.5529 -124.3197 200° South 433 498 26,400 720 Climbing FlightAware ADS-B
01:49PM 46.5186 -124.3380 200° South 438 504 26,600 720 Climbing FlightAware ADS-B
01:50PM 46.4718 -124.3637 201° Southwest 448 516 26,900 600 Climbing FlightAware ADS-B
01:50PM 46.4434 -124.3790 201° Southwest 449 517 27,000 120 Climbing FlightAware ADS-B
01:50PM 46.3822 -124.4130 201° Southwest 463 533 27,000  Level FlightAware ADS-B
01:51PM 46.3613 -124.4240 201° Southwest 467 537 27,000  Level FlightAware ADS-B
01:51PM 46.3209 -124.4460 201° Southwest 472 543 27,000 120 Level FlightAware ADS-B
01:51PM 46.2686 -124.4750 201° Southwest 478 550 27,100 180 Climbing FlightAware ADS-B
01:51PM 46.2574 -124.4810 201° Southwest 478 550 27,100 -360 Level FlightAware ADS-B
01:52PM 46.1949 -124.5150 200° South 483 556 26,900 -720 Descending FlightAware ADS-B
01:52PM 46.1861 -124.5200 200° South 487 560 26,700 -2,220 Descending FlightAware ADS-B
01:52PM 46.1295 -124.5490 200° South 498 573 25,800 -1,980 Descending FlightAware ADS-B
01:53PM 46.1052 -124.5621 200° South 501 577 25,400 -1,620 Descending FlightAware ADS-B
01:53PM 46.0818 -124.5750 203° Southwest 501 577 25,200 -1,140 Descending FlightAware ADS-B
01:53PM 46.0193 -124.6240 209° Southwest 502 578 24,700 -960 Descending FlightAware ADS-B
01:53PM 46.0176 -124.6249 209° Southwest 502 578 24,700 -240 Level FlightAware ADS-B
01:54PM 45.9581 -124.6710 208° Southwest 498 573 24,600 900 Descending FlightAware ADS-B
01:54PM 45.9630 -124.6669 208° Southwest 482 555 25,300 2,700 Climbing FlightAware ADS-B
01:54PM 45.8984 -124.7150 208° Southwest 469 540 26,000 1,500 Climbing FlightAware ADS-B
01:55PM 45.8633 -124.7417 208° Southwest 461 531 26,300 720 Climbing FlightAware ADS-B
01:55PM 45.8388 -124.7600 208° Southwest 459 528 26,400 600 Climbing FlightAware ADS-B
01:55PM 45.7817 -124.8030 208° Southwest 459 528 26,700 540 Climbing FlightAware ADS-B
01:55PM 45.7862 -124.7994 208° Southwest 459 528 26,700 540 Level FlightAware ADS-B
01:56PM 45.7229 -124.8460 208° Southwest 461 531 27,000 180 Climbing FlightAware ADS-B
01:57PM 45.6192 -124.9238 208° Southwest 476 548 27,000 -780 Level FlightAware ADS-B
01:58PM 45.4683 -125.0406 208° Southwest 478 550 25,300 -600 Descending Seattle Center
01:59PM 45.4336 -125.2100 254° West 484 557 25,800 540 Climbing Seattle Center
02:00PM 45.4242 -125.3886 266° West 463 533 26,500 540 Climbing Seattle Center
02:01PM 45.3169 -125.4681 208° Southwest 462 532 26,900 180 Climbing Seattle Center
02:02PM 45.2014 -125.5428 204° Southwest 458 527 26,900 -480 Level Seattle Center
02:03PM 45.0928 -125.6478 214° Southwest 465 535 26,000 -120 Descending Seattle Center
02:04PM 44.9836 -125.7517 214° Southwest 473 544 26,700 420 Climbing Seattle Center
02:05PM 44.8819 -125.8331 210° Southwest 430 495 26,900 60 Climbing Seattle Center
02:06PM 44.7683 -125.8581 189° South 440 506 26,900  Level Seattle Center
02:07PM 44.7242 -125.6547 107° East 494 568 26,900  Level Seattle Center
02:14PM 45.5424 -124.9874 North 514 592 27,000  Climbing FlightAware ADS-B
02:14PM 45.6181 -125.0010 343° North 496 571 27,000  Level FlightAware ADS-B
02:14PM 45.6315 -125.0090 336° Northwest 491 565 27,000  Level FlightAware ADS-B
02:14PM 45.6274 -125.0067 337° Northwest 492 566 27,000  Level FlightAware ADS-B
02:15PM 45.6640 -125.0380 323° Northwest 480 552 27,000  Level FlightAware ADS-B
02:15PM 45.6720 -125.0483 318° Northwest 474 545 27,000  Level FlightAware ADS-B
02:15PM 45.6863 -125.0700 310° West 469 540 27,000  Level FlightAware ADS-B
02:15PM 45.6987 -125.0950 303° West 466 536 27,000  Level FlightAware ADS-B
02:15PM 45.6877 -125.0724 307° West 468 539 27,000  Level FlightAware ADS-B
02:15PM 45.7102 -125.1300 292° West 465 535 27,000  Level FlightAware ADS-B
02:15PM 45.7156 -125.1570 284° West 464 534 27,000  Level FlightAware ADS-B
02:16PM 45.7188 -125.1900 275° West 463 533 27,000  Level FlightAware ADS-B
02:16PM 45.7190 -125.1979 269° West 462 532 27,000  Level FlightAware ADS-B
02:16PM 45.7176 -125.2210 263° West 461 531 27,000  Level FlightAware ADS-B
02:16PM 45.7109 -125.2530 249° West 461 531 27,000  Level FlightAware ADS-B
02:16PM 45.7041 -125.2710 240° Southwest 462 532 27,000 -720 Level FlightAware ADS-B
02:17PM 45.6560 -125.3690 234° Southwest 469 540 26,500 -300 Descending FlightAware ADS-B
02:17PM 45.6623 -125.3564 235° Southwest 472 543 26,800 -4,680 Climbing FlightAware ADS-B
02:18PM 45.5839 -125.4861 235° Southwest 482 555 22,400 -480 Descending Seattle Center
02:24PM 44.8637 -125.2083 97° East 530 610 23,600 240 Climbing FlightAware ADS-B
02:24PM 44.8523 -125.0743 97° East 536 617 24,400 1,020 Climbing FlightAware ADS-B
02:25PM 44.8387 -124.9047 94° East 537 618 25,000 600 Climbing FlightAware ADS-B
02:25PM 44.8402 -124.8409 81° East 545 627 25,000  Level FlightAware ADS-B
02:26PM 44.8543 -124.7701 68° East 543 625 25,000  Level FlightAware ADS-B
02:26PM 44.8786 -124.7112 52° Northeast 518 596 25,000  Level FlightAware ADS-B
02:28PM 45.0499 -124.6106 359° North 443 510 25,000  Level FlightAware ADS-B
02:30PM 45.3948 -124.6243 355° North 442 509 25,000 -180 Level FlightAware ADS-B
02:31PM 45.4331 -124.6387 320° Northwest 425 489 24,600 -2,880 Descending FlightAware ADS-B
02:31PM 45.4480 -124.6869 262° West 399 459 23,100 -1,860 Descending FlightAware ADS-B
02:32PM 45.4247 -124.7906 262° West 401 461 22,600 420 Descending Seattle Center
02:33PM 45.3892 -124.9364 251° West 396 456 23,900 1,020 Climbing Seattle Center
02:34PM 45.3533 -125.0833 251° West 395 455 24,800 720 Climbing Seattle Center
02:35PM 45.3214 -125.2219 252° West 376 433 25,400 240 Climbing Seattle Center
02:36PM 45.2856 -125.3567 249° West 370 426 25,300 60 Descending Seattle Center
02:37PM 45.2239 -125.5150 241° Southwest 380 437 25,600 120 Climbing Seattle Center
02:38PM 45.1708 -125.6442 240° Southwest 380 437 25,600 -840 Level Seattle Center
02:39PM 45.0939 -125.7200 215° Southwest 395 455 24,000 -540 Descending Seattle Center
02:40PM 44.9922 -125.6261 147° Southeast 437 503 24,600 660 Climbing Seattle Center
02:41PM 44.8808 -125.6414 186° South 410 472 25,400 600 Climbing Seattle Center
02:42PM 44.7719 -125.6656 189° South 400 460 25,900 900 Climbing Seattle Center
02:43PM 44.6603 -125.6928 190° South 403 464 27,300 1,380 Climbing Seattle Center
02:49PM 44.4489 -125.1996 28° Northeast 502 578 36,400 1,320 Climbing FlightAware ADS-B
02:50PM 44.5237 -125.1459 27° Northeast 502 578 36,900 600 Climbing FlightAware ADS-B
02:51PM 44.6225 -125.0778 26° Northeast 505 581 37,200 360 Climbing FlightAware ADS-B
02:52PM 44.7511 -124.9913 26° Northeast 513 590 37,500 240 Climbing FlightAware ADS-B
02:52PM 44.7983 -124.9594 26° Northeast 518 596 37,600  Climbing FlightAware ADS-B
02:53PM 44.8909 -124.8999 North 513 590 37,500 -180 Descending FlightAware ADS-B
02:58PM 45.4883 -124.8881 28° Northeast 533 613 36,700 -240 Descending FlightAware ADS-B
02:58PM 45.5044 -124.8760 28° Northeast 527 606 36,500 -1,200 Descending FlightAware ADS-B
02:58PM 45.5772 -124.8218 27° Northeast 541 623 35,900 -840 Descending FlightAware ADS-B
02:58PM 45.5874 -124.8140 28° Northeast 539 620 36,000 240 Climbing FlightAware ADS-B
02:59PM 45.6346 -124.7870 17° North 534 615 36,000  Level FlightAware ADS-B
02:59PM 45.6625 -124.7800 North 526 605 36,000  Level FlightAware ADS-B
02:59PM 45.6553 -124.7813 North 524 603 36,000  Level FlightAware ADS-B
02:59PM 45.6775 -124.7810 357° North 522 601 36,000  Level FlightAware ADS-B
02:59PM 45.6968 -124.7850 349° North 515 593 36,000 300 Level FlightAware ADS-B
02:59PM 45.7183 -124.7960 338° Northwest 504 580 36,100  Climbing FlightAware ADS-B
02:59PM 45.7081 -124.7903 338° Northwest 504 580 36,000 -300 Descending FlightAware ADS-B
03:00PM 45.7485 -124.8263 315° West 465 535 36,000  Level FlightAware ADS-B
03:00PM 45.7632 -124.8530 311° West 457 526 36,000  Level FlightAware ADS-B
03:00PM 45.7670 -124.8630 298° West 439 505 36,000  Level FlightAware ADS-B
03:00PM 45.7714 -124.8790 289° West 431 496 36,000  Level FlightAware ADS-B
03:00PM 45.7738 -124.8930 283° West 428 493 36,000  Level FlightAware ADS-B
03:00PM 45.7755 -124.9210 272° West 427 491 36,000  Level FlightAware ADS-B
03:00PM 45.7751 -124.9077 276° West 428 493 36,000  Level FlightAware ADS-B
03:00PM 45.7745 -124.9530 265° West 427 491 36,000  Level FlightAware ADS-B
03:01PM 45.7702 -124.9810 254° West 426 490 36,000  Level FlightAware ADS-B
03:01PM 45.7669 -124.9934 249° West 427 491 36,000  Level FlightAware ADS-B
03:01PM 45.7597 -125.0170 245° Southwest 430 495 36,000 120 Level FlightAware ADS-B
03:01PM 45.7321 -125.0940 243° Southwest 437 503 36,100 300 Climbing FlightAware ADS-B
03:02PM 45.7039 -125.1720 243° Southwest 442 509 36,300 240 Climbing FlightAware ADS-B
03:02PM 45.7005 -125.1818 243° Southwest 443 510 36,300 360 Level FlightAware ADS-B
03:02PM 45.6747 -125.2530 243° Southwest 448 516 36,500 300 Climbing FlightAware ADS-B
03:03PM 45.6734 -125.2569 243° Southwest 449 517 36,500 360 Level FlightAware ADS-B
03:03PM 45.6455 -125.3330 242° Southwest 454 522 36,700 720 Climbing FlightAware ADS-B
03:03PM 45.6215 -125.3970 242° Southwest 452 520 37,000 540 Climbing FlightAware ADS-B
03:03PM 45.6145 -125.4150 242° Southwest 454 522 37,000  Level FlightAware ADS-B
03:04PM 45.5836 -125.4970 242° Southwest 461 531 37,000 -120 Level FlightAware ADS-B
03:04PM 45.5525 -125.5800 242° Southwest 463 533 36,900 -1,560 Descending FlightAware ADS-B
03:05PM 45.5207 -125.6640 240° Southwest 460 529 35,400 -240 Descending FlightAware ADS-B
03:07PM 45.3097 -125.7800 206° Southwest 437 503 36,400 480 Climbing FlightAware ADS-B
03:07PM 45.2951 -125.7920 212° Southwest 435 501 36,400  Level FlightAware ADS-B
03:08PM 45.2400 -125.8436 212° Southwest 446 513 36,400 60 Level Seattle Center
03:09PM 45.1322 -125.9325 210° Southwest 444 511 36,500  Climbing Seattle Center
03:10PM 45.0158 -126.0169 207° Southwest 464 534 36,500 -60 Level Seattle Center
03:16PM 44.4460 -125.5236 67° East 530 610 36,200  Descending FlightAware ADS-B
03:17PM 44.4945 -125.3677 66° East 531 611 36,500 180 Climbing FlightAware ADS-B
03:18PM 44.5338 -125.2468 65° Northeast 531 611 36,500  Level FlightAware ADS-B
03:19PM 44.6179 -124.9889 65° Northeast 539 620 36,500  Level FlightAware ADS-B
03:20PM 44.6525 -124.8831 66° East 537 618 36,500  Level FlightAware ADS-B
03:20PM 44.6729 -124.8235 54° Northeast 536 617 36,500  Level FlightAware ADS-B
03:20PM 44.6989 -124.7766 33° Northeast 529 609 36,500  Level FlightAware ADS-B
03:21PM 44.7601 -124.7286 21° North 524 603 36,500  Level FlightAware ADS-B
03:21PM 44.7805 -124.7180 21° North 525 604 36,500  Level FlightAware ADS-B
03:21PM 44.8514 -124.6802 21° North 526 605 36,500  Level FlightAware ADS-B
03:22PM 44.8650 -124.6730 21° North 526 605 36,500  Level FlightAware ADS-B
03:22PM 44.9383 -124.6340 21° North 527 606 36,500  Level FlightAware ADS-B
03:23PM 45.0081 -124.5970 21° North 528 608 36,500  Level FlightAware ADS-B
03:23PM 45.0890 -124.5530 21° North 533 613 36,500  Level FlightAware ADS-B
03:24PM 45.1592 -124.5150 21° North 537 618 36,500  Level FlightAware ADS-B
03:24PM 45.2221 -124.4870 14° North 535 616 36,500 -180 Level FlightAware ADS-B
03:24PM 45.2485 -124.4777 13° North 537 618 36,400 -240 Descending FlightAware ADS-B
03:25PM 45.2949 -124.4620 13° North 540 621 36,400 -2,700 Level FlightAware ADS-B
03:25PM 45.3659 -124.4390 13° North 542 624 34,700 -3,420 Descending FlightAware ADS-B
03:25PM 45.3557 -124.4424 13° North 541 623 34,600 -4,200 Descending FlightAware ADS-B
03:25PM 45.3970 -124.4330 North 538 619 33,800 -5,160 Descending FlightAware ADS-B
03:25PM 45.4070 -124.4330 358° North 536 617 33,400 -2,700 Descending FlightAware ADS-B
03:25PM 45.3861 -124.4340 354° North 535 616 33,400 -5,820 Level FlightAware ADS-B
03:26PM 45.4523 -124.4840 296° West 483 556 30,900 -2,580 Descending FlightAware ADS-B
03:26PM 45.4662 -124.5251 296° West 467 537 31,700 2,580 Climbing FlightAware ADS-B
03:26PM 45.4826 -124.5730 296° West 466 536 32,300 3,000 Climbing FlightAware ADS-B
03:27PM 45.4885 -124.5980 285° West 446 513 32,800 2,820 Climbing FlightAware ADS-B
03:27PM 45.4906 -124.6200 274° West 435 501 33,100 1,620 Climbing FlightAware ADS-B
03:27PM 45.4900 -124.6407 263° West 428 493 33,300 840 Climbing FlightAware ADS-B
03:27PM 45.4878 -124.6580 263° West 428 493 33,300  Level FlightAware ADS-B
03:27PM 45.4763 -124.6979 241° Southwest 430 495 33,300 300 Level FlightAware ADS-B
03:27PM 45.4601 -124.7308 230° Southwest 432 497 33,500 900 Climbing FlightAware ADS-B
03:31PM 45.0823 -124.8987 186° South 452 520 36,600 720 Climbing FlightAware ADS-B
03:31PM 45.0054 -124.9104 186° South 463 533 36,600 -420 Level FlightAware ADS-B
03:33PM 44.8135 -124.9422 189° South 481 554 35,800 60 Descending FlightAware ADS-B
03:33PM 44.7513 -124.9551 176° South 441 507 36,800 780 Climbing FlightAware ADS-B
03:34PM 44.7056 -124.9446 148° Southeast 468 539 36,600 -300 Descending FlightAware ADS-B
03:34PM 44.6760 -124.9117 126° Southeast 487 560 36,600  Level FlightAware ADS-B
03:34PM 44.6528 -124.8277 93° East 511 588 36,600  Level FlightAware ADS-B
03:35PM 44.6596 -124.7614 71° East 519 597 36,600  Level FlightAware ADS-B
03:35PM 44.6778 -124.7157 47° Northeast 522 601 36,600  Level FlightAware ADS-B
03:35PM 44.7220 -124.6680 23° Northeast 517 595 36,600  Level FlightAware ADS-B
03:36PM 44.7632 -124.6520 11° North 514 592 36,600  Level FlightAware ADS-B
03:36PM 44.7692 -124.6504 10° North 515 593 36,600 -180 Level FlightAware ADS-B
03:36PM 44.8606 -124.6294 North 528 608 36,500 -300 Descending FlightAware ADS-B
03:37PM 44.8832 -124.6240 North 520 598 36,400 -600 Descending FlightAware ADS-B
03:37PM 44.9630 -124.6057 10° North 534 615 36,100 -960 Descending FlightAware ADS-B
03:37PM 44.9790 -124.6020 North 532 612 35,800 -6,000 Descending FlightAware ADS-B
03:38PM 45.1050 -124.6510 North 543 625 29,000 -2,580 Descending FlightAware ADS-B
03:39PM 45.1128 -124.7719 North 469 540 30,800 1,560 Climbing Seattle Center
03:40PM 45.1214 -124.9350 274° West 426 490 32,000 840 Climbing Seattle Center
03:46PM 44.8348 -125.7304 179° South 480 552 37,200 300 Climbing FlightAware ADS-B
03:50PM 44.4630 -125.3084 87° East 541 623 35,300 -300 Descending FlightAware ADS-B
03:51PM 44.4815 -125.1615 75° East 544 626 35,800 420 Climbing FlightAware ADS-B
03:52PM 44.5365 -124.9759 64° Northeast 542 624 36,100 540 Climbing FlightAware ADS-B
03:53PM 44.5900 -124.8401 54° Northeast 535 616 36,700 780 Climbing FlightAware ADS-B
03:53PM 44.6268 -124.7840 43° Northeast 534 615 36,900 480 Climbing FlightAware ADS-B
03:54PM 44.6941 -124.7054 40° Northeast 536 617 37,200 360 Climbing FlightAware ADS-B
03:54PM 44.7206 -124.6750 42° Northeast 534 615 37,200 -300 Level FlightAware ADS-B
03:54PM 44.7432 -124.6510 35° Northeast 539 620 37,100 -420 Descending FlightAware ADS-B
03:55PM 44.7825 -124.6247 21° North 534 615 37,000  Descending FlightAware ADS-B
03:55PM 44.7977 -124.6160 21° North 533 613 37,100 120 Climbing FlightAware ADS-B
03:55PM 44.8593 -124.5836 20° North 534 615 37,100  Level FlightAware ADS-B
03:55PM 44.8935 -124.5660 20° North 534 615 37,100  Level FlightAware ADS-B
03:56PM 44.9371 -124.5430 19° North 533 613 37,100 120 Level FlightAware ADS-B
03:56PM 44.9829 -124.5260 12° North 528 608 37,200 120 Climbing FlightAware ADS-B
03:56PM 45.0045 -124.5204 North 524 603 37,200  Level FlightAware ADS-B
03:56PM 45.0294 -124.5160 North 522 601 37,200 300 Level FlightAware ADS-B
03:57PM 45.1018 -124.5120 North 518 596 37,400 240 Climbing FlightAware ADS-B
03:57PM 45.1783 -124.5090 North 517 595 37,500 120 Climbing FlightAware ADS-B
03:58PM 45.1883 -124.5083 North 519 597 37,500  Level FlightAware ADS-B
03:58PM 45.2526 -124.5060 North 520 598 37,500  Level FlightAware ADS-B
03:58PM 45.2901 -124.5043 North 521 600 37,500  Level FlightAware ADS-B
03:58PM 45.3272 -124.5030 North 522 601 37,500  Level FlightAware ADS-B
03:59PM 45.4005 -124.5000 North 522 601 37,500  Level FlightAware ADS-B
03:59PM 45.3899 -124.5007 North 522 601 37,500  Level FlightAware ADS-B
03:59PM 45.4726 -124.4970 North 517 595 37,500  Level FlightAware ADS-B
04:00PM 45.4978 -124.4963 North 515 593 37,500  Level FlightAware ADS-B
04:00PM 45.5450 -124.4940 North 515 593 37,500  Level FlightAware ADS-B
04:00PM 45.5859 -124.4925 North 516 594 37,500  Level FlightAware ADS-B
04:00PM 45.6174 -124.4910 North 516 594 37,500  Level FlightAware ADS-B
04:01PM 45.6672 -124.4890 North 506 582 37,500  Level FlightAware ADS-B
04:01PM 45.6760 -124.4890 360° North 503 579 37,500 -600 Level FlightAware ADS-B
04:01PM 45.6871 -124.4890 358° North 496 571 37,400  Descending FlightAware ADS-B
04:01PM 45.7102 -124.4910 354° North 487 560 37,500 300 Climbing FlightAware ADS-B
04:01PM 45.7283 -124.4950 351° North 481 554 37,500  Level FlightAware ADS-B
04:01PM 45.7547 -124.5030 346° North 476 548 37,500  Level FlightAware ADS-B
04:01PM 45.7657 -124.5070 344° North 474 545 37,500  Level FlightAware ADS-B
04:02PM 45.7749 -124.5110 342° North 473 544 37,500  Level FlightAware ADS-B
04:02PM 45.8000 -124.5250 337° Northwest 468 539 37,500  Level FlightAware ADS-B
04:02PM 45.8134 -124.5330 335° Northwest 466 536 37,500  Level FlightAware ADS-B
04:02PM 45.8464 -124.5618 321° Northwest 452 520 37,500  Level FlightAware ADS-B
04:03PM 45.8724 -124.6045 300° West 437 503 37,500  Level FlightAware ADS-B
04:03PM 45.8803 -124.6290 333° Northwest 464 534 37,500  Level FlightAware ADS-B
04:03PM 45.8855 -124.6670 288° West 430 495 37,500  Level FlightAware ADS-B
04:03PM 45.8852 -124.6605 276° West 426 490 37,500  Level FlightAware ADS-B
04:03PM 45.8817 -124.7126 253° West 424 488 37,500  Level FlightAware ADS-B
04:03PM 45.8709 -124.7460 248° West 424 488 37,500  Level FlightAware ADS-B
04:03PM 45.8676 -124.7530 239° Southwest 426 490 37,500  Level FlightAware ADS-B
04:04PM 45.8627 -124.7621 228° Southwest 429 494 37,500  Level FlightAware ADS-B
04:04PM 45.8267 -124.7998 203° Southwest 441 507 37,500  Level FlightAware ADS-B
04:04PM 45.8035 -124.8100 239° Southwest 426 490 37,500  Level FlightAware ADS-B
04:04PM 45.7928 -124.8119 185° South 452 520 37,500  Level FlightAware ADS-B
04:05PM 45.7068 -124.8127 179° South 457 526 37,500  Level FlightAware ADS-B
04:06PM 45.5785 -124.8100 179° South 456 525 37,500  Level FlightAware ADS-B
04:07PM 45.4628 -124.8074 179° South 458 527 37,500  Level FlightAware ADS-B
04:09PM 45.2264 -124.5770 77° East 501 577 37,500  Level FlightAware ADS-B
04:09PM 45.2301 -124.5610 71° East 501 577 37,500  Level FlightAware ADS-B
04:10PM 45.2356 -124.5420 65° Northeast 502 578 37,500  Level FlightAware ADS-B
04:10PM 45.2400 -124.5310 61° Northeast 502 578 37,500  Level FlightAware ADS-B
04:10PM 45.2471 -124.5160 55° Northeast 501 577 37,500  Level FlightAware ADS-B
04:10PM 45.2543 -124.5030 50° Northeast 500 575 37,500  Level FlightAware ADS-B
04:10PM 45.2646 -124.4880 44° Northeast 499 574 37,500  Level FlightAware ADS-B
04:10PM 45.2737 -124.4770 39° Northeast 498 573 37,500  Level FlightAware ADS-B
04:10PM 45.2958 -124.4570 28° Northeast 495 570 37,500  Level FlightAware ADS-B
04:10PM 45.2854 -124.4652 31° Northeast 496 571 37,500  Level FlightAware ADS-B
04:10PM 45.3200 -124.4440 17° North 490 564 37,500  Level FlightAware ADS-B
04:11PM 45.3293 -124.4411 North 487 560 37,500  Level FlightAware ADS-B
04:11PM 45.3435 -124.4380 North 486 559 37,500  Level FlightAware ADS-B
04:11PM 45.4108 -124.4290 North 484 557 37,500  Level FlightAware ADS-B
04:11PM 45.4193 -124.4285 North 484 557 37,500  Level FlightAware ADS-B
04:11PM 45.4523 -124.4250 North 484 557 37,500  Level FlightAware ADS-B
04:12PM 45.4749 -124.4210 North 485 558 37,500 -300 Level FlightAware ADS-B
04:12PM 45.4951 -124.4150 14° North 486 559 37,400 -900 Descending FlightAware ADS-B
04:12PM 45.5089 -124.4096 20° North 487 560 37,200 -1,680 Descending FlightAware ADS-B
04:12PM 45.5187 -124.4050 20° North 487 560 37,100 -3,300 Descending FlightAware ADS-B
04:12PM 45.5408 -124.3900 27° Northeast 489 563 36,600 -2,580 Descending FlightAware ADS-B
04:12PM 45.5266 -124.4001 31° Northeast 492 566 36,300 -2,220 Descending FlightAware ADS-B
04:12PM 45.5608 -124.3740 33° Northeast 492 566 36,200 -3,960 Descending FlightAware ADS-B
04:13PM 45.6177 -124.3160 35° Northeast 507 583 34,200 -3,960 Descending FlightAware ADS-B
04:13PM 45.6297 -124.3043 35° Northeast 515 593 33,700 -4,620 Descending FlightAware ADS-B
04:13PM 45.6766 -124.2570 36° Northeast 532 612 31,900 -4,380 Descending FlightAware ADS-B
04:14PM 45.7000 -124.2328 36° Northeast 539 620 30,800 -3,240 Descending FlightAware ADS-B
04:14PM 45.7375 -124.1940 36° Northeast 535 616 30,300 -1,980 Descending FlightAware ADS-B
04:14PM 45.7749 -124.1560 36° Northeast 524 603 29,500 -1,800 Descending FlightAware ADS-B
04:14PM 45.7973 -124.1330 36° Northeast 523 602 29,400 -2,280 Descending FlightAware ADS-B
04:15PM 45.8557 -124.0730 36° Northeast 513 590 28,300 -1,920 Descending FlightAware ADS-B
04:15PM 45.8626 -124.0660 36° Northeast 511 588 28,200 -1,800 Descending FlightAware ADS-B
04:15PM 45.9137 -124.0140 36° Northeast 502 578 27,400 -1,800 Descending FlightAware ADS-B
04:16PM 45.9443 -123.9823 35° Northeast 492 566 27,000 -1,800 Descending FlightAware ADS-B
04:16PM 45.9693 -123.9570 35° Northeast 488 562 26,500 -2,100 Descending FlightAware ADS-B
04:16PM 46.0133 -123.9116 36° Northeast 480 552 25,600 -2,040 Descending FlightAware ADS-B
04:16PM 46.0241 -123.9000 36° Northeast 477 549 25,500 -1,680 Descending FlightAware ADS-B
04:17PM 46.0773 -123.8450 36° Northeast 465 535 24,700 -1,680 Descending FlightAware ADS-B
04:17PM 46.0867 -123.8357 36° Northeast 462 532 24,500 -1,380 Descending FlightAware ADS-B
04:17PM 46.1302 -123.7910 36° Northeast 453 521 24,000 -780 Descending FlightAware ADS-B
04:18PM 46.1519 -123.7685 36° Northeast 446 513 24,000  Level FlightAware ADS-B
04:18PM 46.1822 -123.7370 36° Northeast 442 509 24,000  Level FlightAware ADS-B
04:18PM 46.2222 -123.6956 36° Northeast 439 505 24,000  Level FlightAware ADS-B
04:18PM 46.2320 -123.6850 36° Northeast 439 505 24,000  Level FlightAware ADS-B
04:19PM 46.2821 -123.6330 36° Northeast 435 501 24,000  Level FlightAware ADS-B
04:19PM 46.2874 -123.6276 36° Northeast 436 502 24,000  Level FlightAware ADS-B
04:19PM 46.3316 -123.5810 36° Northeast 433 498 24,000  Level FlightAware ADS-B
04:20PM 46.3805 -123.5300 36° Northeast 432 497 24,000  Level FlightAware ADS-B
04:20PM 46.3724 -123.5387 36° Northeast 432 497 24,000  Level FlightAware ADS-B
04:20PM 46.4293 -123.4790 36° Northeast 429 494 24,000  Level FlightAware ADS-B
04:20PM 46.4332 -123.4748 36° Northeast 431 496 24,000  Level FlightAware ADS-B (CYVR)
04:21PM 46.4836 -123.4220 36° Northeast 449 517 24,000  Level FlightAware ADS-B
04:21PM 46.4893 -123.4159 36° Northeast 451 519 24,000 -240 Level FlightAware ADS-B (CYVR)
04:21PM 46.5344 -123.3680 36° Northeast 456 525 23,900 -240 Descending FlightAware ADS-B
04:21PM 46.5395 -123.3629 36° Northeast 455 524 23,900 -1,620 Level FlightAware ADS-B (CYVR)
04:22PM 46.5850 -123.3150 36° Northeast 447 514 23,100 -1,800 Descending FlightAware ADS-B
04:22PM 46.5893 -123.3101 36° Northeast 446 513 23,000 -1,800 Descending FlightAware ADS-B (CYVR)
04:22PM 46.6347 -123.2620 36° Northeast 437 503 22,200 -1,680 Descending FlightAware ADS-B
04:23PM 46.6552 -123.2403 36° Northeast 436 502 21,900 -1,620 Descending FlightAware ADS-B (CYVR)
04:23PM 46.6836 -123.2100 36° Northeast 439 505 21,400 -1,800 Descending FlightAware ADS-B
04:23PM 46.7334 -123.1570 36° Northeast 436 502 20,500 -1,800 Descending FlightAware ADS-B
04:24PM 46.7615 -123.1273 36° Northeast 431 496 20,000 -1,800 Descending FlightAware ADS-B (CYVR)
04:24PM 46.7819 -123.1050 36° Northeast 428 493 19,600 -1,860 Descending FlightAware ADS-B
04:24PM 46.8293 -123.0540 36° Northeast 421 484 18,700 -1,800 Descending FlightAware ADS-B
04:25PM 46.7873 -123.0995 36° Northeast 421 484 18,400 -2,160 Descending FlightAware ADS-B
04:25PM 46.8769 -123.0040 36° Northeast 420 483 17,600 -1,560 Descending FlightAware ADS-B
04:25PM 46.9219 -122.9550 36° Northeast 414 476 17,100 -900 Descending FlightAware ADS-B
04:26PM 46.9425 -122.9333 36° Northeast 411 473 17,000 -480 Descending FlightAware ADS-B (CYVR)
04:26PM 46.9613 -122.9130 38° Northeast 411 473 16,900 -1,140 Descending FlightAware ADS-B
04:26PM 46.9985 -122.8680 41° Northeast 413 475 16,300 -1,560 Descending FlightAware ADS-B
04:27PM 47.0420 -122.8120 41° Northeast 408 470 15,500 -1,680 Descending FlightAware ADS-B
04:27PM 47.0847 -122.7580 41° Northeast 401 461 14,600 -1,800 Descending FlightAware ADS-B
04:28PM 47.1271 -122.7040 41° Northeast 400 460 13,700 -1,680 Descending FlightAware ADS-B
04:28PM 47.1438 -122.6823 41° Northeast 395 455 13,200 -1,620 Descending FlightAware ADS-B (CYVR)
04:28PM 47.1688 -122.6500 41° Northeast 393 452 12,900 -1,800 Descending FlightAware ADS-B
04:29PM 47.1978 -122.6131 41° Northeast 387 445 12,300 -1,620 Descending FlightAware ADS-B (CYVR)
04:29PM 47.2098 -122.5980 41° Northeast 381 438 12,100 -1,080 Descending FlightAware ADS-B
04:29PM 47.1846 -122.6301 41° Northeast 389 448 12,000 -600 Descending FlightAware ADS-B (CYWH)
04:29PM 47.2486 -122.5470 41° Northeast 353 406 11,800 -420 Descending FlightAware ADS-B
04:29PM 47.2610 -122.5320 40° Northeast 339 390 11,800  Level FlightAware ADS-B
04:30PM 47.2693 -122.5230 34° Northeast 333 383 11,800 -480 Level FlightAware ADS-B
04:30PM 47.2798 -122.5150 23° Northeast 325 374 11,700 -900 Descending FlightAware ADS-B
04:30PM 47.2885 -122.5110 15° North 316 364 11,600 -1,200 Descending FlightAware ADS-B
04:30PM 47.2941 -122.5090 North 309 356 11,500 -2,280 Descending FlightAware ADS-B
04:30PM 47.3000 -122.5090 North 305 351 11,300 -2,580 Descending FlightAware ADS-B
04:30PM 47.3045 -122.5090 359° North 301 346 11,200 -2,880 Descending FlightAware ADS-B
04:30PM 47.3188 -122.5105 352° North 297 342 10,300 -2,520 Descending FlightAware ADS-B (CYVR)
04:30PM 47.3438 -122.5160 351° North 296 341 10,000 -2,100 Descending FlightAware ADS-B
04:31PM 47.3714 -122.5220 351° North 293 337 9,200 -2,400 Descending FlightAware ADS-B
04:31PM 47.3970 -122.5280 351° North 289 333 8,400 -2,580 Descending FlightAware ADS-B
04:31PM 47.4171 -122.5330 351° North 285 328 7,700 -2,520 Descending FlightAware ADS-B
04:32PM 47.4364 -122.5370 351° North 280 322 7,100 -2,580 Descending FlightAware ADS-B
04:32PM 47.4504 -122.5410 350° North 279 321 6,600 -2,580 Descending FlightAware ADS-B
04:32PM 47.4719 -122.5460 350° North 276 318 5,900 -2,160 Descending FlightAware ADS-B
04:32PM 47.4933 -122.5520 350° North 263 303 5,400 -1,680 Descending FlightAware ADS-B
04:33PM 47.5113 -122.5570 349° North 247 284 5,000 -2,160 Descending FlightAware ADS-B
04:33PM 47.5249 -122.5610 349° North 246 283 4,400 -2,160 Descending FlightAware ADS-B
04:33PM 47.5453 -122.5660 349° North 236 272 3,900 -1,440 Descending FlightAware ADS-B
04:33PM 47.5609 -122.5710 349° North 231 266 3,600 -1,140 Descending FlightAware ADS-B
04:34PM 47.5932 -122.5810 349° North 213 245 3,000 -900 Descending FlightAware ADS-B
04:34PM 47.6081 -122.5850 349° North 217 250 2,900 -420 Descending FlightAware ADS-B
04:34PM 47.6228 -122.5900 349° North 214 246 2,800 -240 Descending FlightAware ADS-B
04:35PM 47.6393 -122.5950 349° North 215 247 2,800  Level FlightAware ADS-B
04:35PM 47.6754 -122.6050 348° North 213 245 2,800  Level FlightAware ADS-B
04:36PM 47.7051 -122.6150 348° North 216 249 2,800  Level FlightAware ADS-B
04:36PM 47.7263 -122.6210 348° North 214 246 2,800  Level FlightAware ADS-B
04:36PM 47.7416 -122.6240 North 210 242 2,800  Level FlightAware ADS-B
04:37PM 47.7485 -122.6220 13° North 209 241 2,800 -360 Level FlightAware ADS-B
04:37PM 47.7569 -122.6140 36° Northeast 207 238 2,700 -720 Descending FlightAware ADS-B
04:37PM 47.7703 -122.5880 56° Northeast 202 232 2,400 -540 Descending FlightAware ADS-B
04:38PM 47.7647 -122.5180 117° Southeast 203 234 2,000 -360 Descending FlightAware ADS-B
04:38PM 47.7597 -122.5040 119° Southeast 201 231 2,000  Level FlightAware ADS-B
04:38PM 47.7562 -122.4970 133° Southeast 198 228 2,000 600 Level FlightAware ADS-B
04:38PM 47.7535 -122.4940 140° Southeast 197 227 2,100  Climbing FlightAware ADS-B
04:40PM 47.6660 -122.4180 150° Southeast 196 226 2,000 -60 Descending FlightAware ADS-B
04:41PM 47.6536 -122.4080 150° Southeast 190 219 2,000  Level FlightAware ADS-B
04:41PM 47.6418 -122.3970 150° Southeast 172 198 2,000  Level FlightAware ADS-B
04:41PM 47.6350 -122.3910 150° Southeast 162 186 2,000 -360 Level FlightAware ADS-B
04:41PM 47.6294 -122.3870 150° Southeast 161 185 1,900 -720 Descending FlightAware ADS-B
04:41PM 47.6181 -122.3770 150° Southeast 159 183 1,700 -900 Descending FlightAware ADS-B
04:42PM 47.6080 -122.3690 150° Southeast 158 182 1,400 -960 Descending FlightAware ADS-B
04:42PM 47.6015 -122.3630 150° Southeast 156 180 1,300 -780 Descending FlightAware ADS-B
04:42PM 47.5876 -122.3510 150° Southeast 156 180 1,000 -660 Descending FlightAware ADS-B
04:43PM 47.5542 -122.3236 150° Southeast 166 191 400 -480 Descending Seattle Center
04:44PM 47.5172 -122.2897 148° Southeast 156 180 100 -300 Descending Seattle Center